ボゴタ の空港の天気 - METARとTAF

エルドラド国際空港(ボコダ) ( SKBO / BOG ) - コロンビア ボゴタ
飛行場実況気象(Metar)
観測時間07/28 21:00 COT (07/29 02:00 UTC)
風向・風速北東 4m/s
視程10km以上
天気現象
全天の4割程度の雲 雲底高度 520m
全天の8割程度の雲 雲底高度 2130m
気温13℃
湿度82%
気圧1028hPa
METARSKBO 290200Z 05007KT 9999 SCT017 BKN070 13/10 Q1028 NOSIG RMK A3036
過去の天気等 Google飛行場航空写真 Wunderground天気予報

過去48時間のMETAR

飛行場予報(TAF)
発表時間: 7/28 17:30 COT (7/28 22:30 UTC)
予報対象時間: 28日19時 COT ~ 29日19時 COT
風向・風速不定 2m/s
視程10km以上
全天の4割程度の雲 雲底高度 610m
28日20時 COT ~ 28日24時 COT に一時的に
天気現象霧雨
全天の4割程度の雲 雲底高度 300m
全天の8割程度の雲 雲底高度 2130m
29日15時 COT から 確率 40% で
天気現象霧雨雨
全天の4割程度の塔状積雲 雲底高度 460m
TAF SKBO 282230Z 2900/2924 VRB03KT 9999 SCT020
TEMPO 2901/2905 DZ SCT010 BKN070
PROB40 2920/2923 DZRA SCT015TCU TX19/2919Z TN10/2910Z